LEVD/VLL METAR and TAF weather

Enter ICAO airport designator
Station Type Date Time Source
LEVD METAR 2020/09/19 20:30 UTC NOAA

LEVD 192030Z AUTO 25008KT 9999 FEW012 15/13 Q1018


Station Type Date Time Source
LEVD Decoded METAR 2020/09/19 20:30 UTC NOAA

Valladolid / Villanubla, Spain (LEVD) 41-43N 004-51W 846M
Sep 19, 2020 - 04:30 PM EDT / 2020.09.19 2030 UTC
Wind: from the WSW (250 degrees) at 9 MPH (8 KT):0
Visibility: greater than 7 mile(s):0
Sky conditions: mostly clear
Temperature: 59 F (15 C)
Dew Point: 55 F (13 C)
Relative Humidity: 87%
Pressure (altimeter): 30.06 in. Hg (1018 hPa)
ob: LEVD 192030Z AUTO 25008KT 9999 FEW012 15/13 Q1018
cycle: 20

Station Type Date Time Source
LEVD TAF 2020/09/19 21:27 UTC NOAA

TAF TAF LEVD 192000Z 1921/2021 26013KT 9999 SCT030 BKN040 TX22/2016Z TN13/2006Z
TEMPO 1921/2015 3000 RA SHRA BKN014 SCT030TCU
TEMPO 1921/2009 2500 BCFG BKN005 PROB40
TEMPO 1923/2008 0900 FG BKN001

Example: see airport list